createdAt,value
2019-05-30T00:02:13.617Z,2.87
2019-05-30T00:04:41.284Z,5.30
2019-05-30T00:07:11.144Z,2.03
2019-05-30T00:09:37.228Z,1.63
2019-05-30T00:12:05.156Z,1.00
2019-05-30T00:14:32.256Z,1.43
2019-05-30T00:17:00.951Z,1.73
2019-05-30T00:19:28.200Z,4.03
2019-05-30T00:21:56.615Z,1.67
2019-05-30T00:24:24.566Z,1.37
2019-05-30T00:26:52.822Z,1.53
2019-05-30T00:29:20.347Z,3.20
2019-05-30T00:31:47.833Z,1.60
2019-05-30T00:34:15.332Z,2.37
2019-05-30T00:36:43.577Z,1.80
2019-05-30T00:39:11.074Z,2.17
2019-05-30T00:41:38.555Z,1.97
2019-05-30T00:44:06.808Z,2.47
2019-05-30T00:46:34.291Z,1.60
2019-05-30T00:49:02.823Z,1.37
2019-05-30T00:51:31.235Z,2.57
2019-05-30T00:53:58.713Z,1.93
2019-05-30T00:56:27.192Z,1.83
2019-05-30T00:58:56.511Z,1.83
2019-05-30T01:01:24.059Z,1.73
2019-05-30T01:03:51.563Z,2.10
2019-05-30T01:06:19.157Z,1.83
2019-05-30T01:08:46.756Z,2.83
2019-05-30T01:11:15.019Z,2.30
2019-05-30T01:13:42.596Z,2.07
2019-05-30T01:16:10.148Z,2.37
2019-05-30T01:18:37.813Z,2.30
2019-05-30T01:21:05.498Z,2.70
2019-05-30T01:23:33.687Z,1.90
2019-05-30T01:26:01.389Z,2.27
2019-05-30T01:28:29.014Z,2.67
2019-05-30T01:31:03.104Z,2.30
2019-05-30T01:33:24.937Z,3.43
2019-05-30T01:35:52.608Z,1.97
2019-05-30T01:38:20.280Z,2.23
2019-05-30T01:40:48.061Z,2.23
2019-05-30T01:43:15.572Z,2.20
2019-05-30T01:45:43.102Z,1.90
2019-05-30T01:48:11.347Z,2.33
2019-05-30T01:50:38.926Z,2.03
2019-05-30T01:53:06.780Z,2.20
2019-05-30T01:55:34.265Z,2.00
2019-05-30T01:58:03.136Z,2.67
2019-05-30T02:00:39.029Z,2.00
2019-05-30T02:03:07.286Z,2.07
2019-05-30T02:05:35.458Z,2.40
2019-05-30T02:08:05.136Z,3.00
2019-05-30T02:10:32.564Z,2.27
2019-05-30T02:13:01.204Z,2.60
2019-05-30T02:15:28.497Z,3.07
2019-05-30T02:17:56.501Z,2.47
2019-05-30T02:20:24.333Z,3.10
2019-05-30T02:22:51.823Z,3.10
2019-05-30T02:25:20.172Z,3.30
2019-05-30T02:27:47.728Z,2.90
2019-05-30T02:30:15.302Z,3.57
2019-05-30T02:32:42.859Z,3.60
2019-05-30T02:35:12.586Z,3.10
2019-05-30T02:37:38.324Z,3.27
2019-05-30T02:40:09.955Z,3.30
2019-05-30T02:42:35.020Z,3.50
2019-05-30T02:45:03.574Z,3.37
2019-05-30T02:47:30.140Z,4.57
2019-05-30T02:49:57.629Z,4.97
2019-05-30T02:52:25.176Z,4.17
2019-05-30T02:54:52.842Z,5.90
2019-05-30T02:57:20.320Z,4.23
2019-05-30T02:59:47.835Z,2.93
2019-05-30T03:02:17.638Z,6.67
2019-05-30T03:04:44.581Z,3.97
2019-05-30T03:07:13.036Z,4.70
2019-05-30T03:09:39.658Z,3.93
2019-05-30T03:12:09.171Z,4.93
2019-05-30T03:14:35.639Z,3.80
2019-05-30T03:17:05.414Z,6.77
2019-05-30T03:19:32.895Z,4.43
2019-05-30T03:22:02.800Z,6.13
2019-05-30T03:24:27.918Z,5.30
2019-05-30T03:26:55.436Z,6.20
2019-05-30T03:29:22.924Z,5.23
2019-05-30T03:31:50.622Z,5.17
2019-05-30T03:34:27.801Z,6.67
2019-05-30T03:36:46.498Z,6.47
2019-05-30T03:39:15.402Z,6.43
2019-05-30T03:41:41.522Z,6.93
2019-05-30T03:44:10.944Z,6.77
2019-05-30T03:46:36.525Z,6.93
2019-05-30T03:49:04.436Z,8.63
2019-05-30T03:51:32.410Z,7.07
2019-05-30T03:53:59.962Z,6.87
2019-05-30T03:56:28.254Z,5.93
2019-05-30T03:59:00.107Z,9.20
2019-05-30T04:04:25.119Z,11.35
2019-05-30T04:06:54.630Z,8.00
2019-05-30T04:09:24.922Z,10.17
2019-05-30T04:11:53.863Z,8.17
2019-05-30T04:14:23.145Z,12.37
2019-05-30T04:16:50.698Z,8.37
2019-05-30T04:19:19.987Z,8.67
2019-05-30T04:21:46.759Z,7.00
2019-05-30T04:24:16.082Z,9.50
2019-05-30T04:26:42.010Z,8.37
2019-05-30T04:29:12.310Z,8.47
2019-05-30T04:31:39.278Z,8.07
2019-05-30T04:34:08.262Z,6.33
2019-05-30T04:36:34.333Z,8.70
2019-05-30T04:39:03.498Z,7.73
2019-05-30T04:41:30.962Z,7.60
2019-05-30T04:43:58.642Z,7.03
2019-05-30T04:46:26.147Z,7.50
2019-05-30T04:48:53.868Z,8.10
2019-05-30T04:51:21.919Z,7.67
2019-05-30T04:53:48.897Z,8.37
2019-05-30T04:56:19.167Z,7.37
2019-05-30T04:58:45.532Z,8.03
2019-05-30T05:01:13.201Z,6.00
2019-05-30T05:03:46.153Z,7.50
2019-05-30T05:06:11.510Z,6.83
2019-05-30T05:08:38.388Z,6.90
2019-05-30T05:11:06.649Z,6.50
2019-05-30T05:13:34.281Z,5.67
2019-05-30T05:16:01.748Z,7.73
2019-05-30T05:18:29.351Z,5.97
2019-05-30T05:20:56.959Z,6.30
2019-05-30T05:23:24.676Z,5.23
2019-05-30T05:26:00.781Z,7.13
2019-05-30T05:28:21.935Z,6.07
2019-05-30T05:30:48.142Z,4.23
2019-05-30T05:33:16.653Z,5.70
2019-05-30T05:35:43.538Z,4.53
2019-05-30T05:38:11.814Z,5.93
2019-05-30T05:40:39.380Z,8.97
2019-05-30T05:43:06.990Z,5.90
2019-05-30T05:45:34.507Z,5.20
2019-05-30T05:48:03.412Z,7.43
2019-05-30T05:50:31.718Z,9.60
2019-05-30T05:52:59.251Z,8.87
2019-05-30T05:55:26.933Z,6.80
2019-05-30T05:57:55.202Z,12.70
2019-05-30T06:00:23.290Z,10.37
2019-05-30T06:02:50.258Z,7.90
2019-05-30T06:05:18.054Z,10.10
2019-05-30T06:07:46.512Z,6.70
2019-05-30T06:10:14.041Z,10.32
2019-05-30T06:12:41.828Z,7.90
2019-05-30T06:15:10.076Z,7.87
2019-05-30T06:17:39.081Z,11.03
2019-05-30T06:20:06.642Z,10.37
2019-05-30T06:22:34.409Z,11.73
2019-05-30T06:25:02.364Z,8.03
2019-05-30T06:27:29.672Z,9.50
2019-05-30T06:29:58.049Z,9.57
2019-05-30T06:32:26.789Z,9.47
2019-05-30T06:34:54.042Z,11.77
2019-05-30T06:37:23.057Z,11.43
2019-05-30T06:39:49.292Z,10.80
2019-05-30T06:42:16.802Z,10.33
2019-05-30T06:44:44.450Z,10.70
2019-05-30T06:47:12.728Z,6.83
2019-05-30T06:49:40.212Z,9.47
2019-05-30T06:52:07.831Z,11.57
2019-05-30T06:54:36.432Z,8.47
2019-05-30T06:57:04.110Z,11.05
2019-05-30T06:59:32.367Z,10.87
2019-05-30T07:02:00.065Z,9.53
2019-05-30T07:04:31.083Z,8.87
2019-05-30T07:06:56.045Z,9.00
2019-05-30T07:09:24.883Z,8.10
2019-05-30T07:11:51.227Z,11.13
2019-05-30T07:14:18.718Z,6.93
2019-05-30T07:16:46.993Z,11.80
2019-05-30T07:19:15.236Z,11.37
2019-05-30T07:21:42.841Z,9.60
2019-05-30T07:24:11.097Z,8.30
2019-05-30T07:26:39.459Z,8.87
2019-05-30T07:29:06.998Z,11.27
2019-05-30T07:31:34.697Z,8.73
2019-05-30T07:34:03.906Z,10.47
2019-05-30T07:36:32.301Z,6.50
2019-05-30T07:38:59.036Z,9.53
2019-05-30T07:41:26.906Z,7.13
2019-05-30T07:43:54.270Z,7.63
2019-05-30T07:46:22.781Z,7.33
2019-05-30T07:48:51.033Z,12.87
2019-05-30T07:51:18.605Z,8.53
2019-05-30T07:53:46.263Z,9.73
2019-05-30T07:56:14.662Z,11.97
2019-05-30T07:58:42.278Z,10.60
2019-05-30T08:01:09.783Z,11.03
2019-05-30T08:03:38.935Z,7.63
2019-05-30T08:06:06.371Z,8.50
2019-05-30T08:08:36.016Z,8.00
2019-05-30T08:11:09.352Z,9.00
2019-05-30T08:13:31.020Z,9.87
2019-05-30T08:15:57.412Z,11.77
2019-05-30T08:18:24.892Z,7.73
2019-05-30T08:20:53.974Z,9.40
2019-05-30T08:23:21.480Z,10.43
2019-05-30T08:25:48.972Z,10.47
2019-05-30T08:28:16.571Z,14.10
2019-05-30T08:30:44.252Z,9.87
2019-05-30T08:33:12.724Z,8.57
2019-05-30T08:35:49.064Z,9.73
2019-05-30T08:38:07.847Z,12.63
2019-05-30T08:40:35.437Z,12.47
2019-05-30T08:43:04.604Z,7.93
2019-05-30T08:45:32.124Z,10.57
2019-05-30T08:47:59.701Z,9.90
2019-05-30T08:50:27.315Z,8.80
2019-05-30T08:52:54.808Z,9.90
2019-05-30T08:55:22.335Z,9.13
2019-05-30T08:57:49.915Z,9.33
2019-05-30T09:00:18.398Z,10.90
2019-05-30T09:02:46.939Z,6.80
2019-05-30T09:05:15.185Z,10.33
2019-05-30T09:07:44.520Z,9.50
2019-05-30T09:10:11.708Z,9.03
2019-05-30T09:12:42.061Z,9.17
2019-05-30T09:15:11.237Z,11.13
2019-05-30T09:17:40.355Z,6.73
2019-05-30T09:20:06.368Z,9.63
2019-05-30T09:22:34.048Z,7.43
2019-05-30T09:25:02.359Z,9.97
2019-05-30T09:27:29.877Z,9.73
2019-05-30T09:29:57.413Z,8.33
2019-05-30T09:32:24.915Z,12.77
2019-05-30T09:34:52.484Z,7.13
2019-05-30T09:37:20.750Z,8.63
2019-05-30T09:39:49.412Z,13.07
2019-05-30T09:42:15.885Z,12.67
2019-05-30T09:44:45.778Z,9.63
2019-05-30T09:47:11.424Z,6.90
2019-05-30T09:49:41.536Z,8.13
2019-05-30T09:52:08.803Z,7.87
2019-05-30T09:54:36.399Z,5.73
2019-05-30T09:57:03.970Z,9.00
2019-05-30T09:59:31.535Z,8.60
2019-05-30T10:01:59.390Z,7.03
2019-05-30T10:04:27.021Z,7.93
2019-05-30T10:06:54.638Z,6.97
2019-05-30T10:09:22.130Z,8.17
2019-05-30T10:11:49.718Z,9.10
2019-05-30T10:14:17.286Z,10.00
2019-05-30T10:16:52.424Z,11.77
2019-05-30T10:19:15.613Z,8.17
2019-05-30T10:21:43.146Z,12.30
2019-05-30T10:24:10.829Z,8.10
2019-05-30T10:26:39.192Z,8.90
2019-05-30T10:29:07.764Z,8.87
2019-05-30T10:31:35.344Z,8.53
2019-05-30T10:34:03.756Z,6.83
2019-05-30T10:36:43.898Z,10.30
2019-05-30T10:38:59.791Z,7.93
2019-05-30T10:41:27.282Z,7.97
2019-05-30T10:43:55.520Z,9.93
2019-05-30T10:46:23.011Z,6.90
2019-05-30T10:48:52.666Z,9.70
2019-05-30T10:51:19.747Z,9.30
2019-05-30T10:53:48.649Z,9.43
2019-05-30T10:56:14.992Z,9.03
2019-05-30T10:58:42.678Z,8.17
2019-05-30T11:01:10.951Z,7.07
2019-05-30T11:03:39.206Z,8.33
2019-05-30T11:06:10.489Z,7.73
2019-05-30T11:08:38.761Z,11.50
2019-05-30T11:11:06.424Z,10.80
2019-05-30T11:13:33.968Z,8.57
2019-05-30T11:16:01.545Z,9.37
2019-05-30T11:18:29.840Z,6.63
2019-05-30T11:20:58.606Z,8.20
2019-05-30T11:23:26.530Z,10.90
2019-05-30T11:25:54.729Z,9.30
2019-05-30T11:28:22.527Z,8.90
2019-05-30T11:30:50.641Z,5.67
2019-05-30T11:33:17.624Z,8.63
2019-05-30T11:35:45.126Z,5.97
2019-05-30T11:38:12.626Z,12.27
2019-05-30T11:40:41.086Z,7.17
2019-05-30T11:43:08.637Z,7.87
2019-05-30T11:45:36.313Z,8.10
2019-05-30T11:48:03.959Z,8.87
2019-05-30T11:50:32.383Z,9.87
2019-05-30T11:53:00.637Z,5.77
2019-05-30T11:55:29.640Z,6.23
2019-05-30T11:57:58.288Z,7.07
2019-05-30T12:00:24.626Z,6.53
2019-05-30T12:02:52.263Z,6.23
2019-05-30T12:05:19.802Z,7.47
2019-05-30T12:07:48.294Z,9.00
2019-05-30T12:10:16.628Z,6.73
2019-05-30T12:12:44.135Z,6.43
2019-05-30T12:15:12.388Z,6.20
2019-05-30T12:17:39.901Z,6.97
2019-05-30T12:20:08.143Z,7.40
2019-05-30T12:22:35.628Z,9.87
2019-05-30T12:25:05.205Z,5.57
2019-05-30T12:27:33.072Z,9.57
2019-05-30T12:30:00.660Z,8.80
2019-05-30T12:32:28.137Z,9.23
2019-05-30T12:34:56.490Z,10.50
2019-05-30T12:37:23.978Z,8.73
2019-05-30T12:39:52.544Z,7.63
2019-05-30T12:42:20.619Z,5.40
2019-05-30T12:44:48.185Z,4.90
2019-05-30T12:47:15.678Z,8.20
2019-05-30T12:49:44.031Z,5.23
2019-05-30T12:52:11.596Z,5.10
2019-05-30T12:54:39.166Z,8.63
2019-05-30T12:57:06.998Z,7.27
2019-05-30T12:59:34.287Z,7.57
2019-05-30T13:02:03.382Z,7.90
2019-05-30T13:04:31.065Z,5.00
2019-05-30T13:06:59.355Z,6.27
2019-05-30T13:09:26.181Z,8.63
2019-05-30T13:11:54.293Z,6.40
2019-05-30T13:14:22.127Z,7.77
2019-05-30T13:16:49.809Z,8.17
2019-05-30T13:19:17.366Z,4.57
2019-05-30T13:21:44.924Z,5.90
2019-05-30T13:24:12.487Z,6.13
2019-05-30T13:26:41.183Z,4.97
2019-05-30T13:29:08.738Z,3.03
2019-05-30T13:31:36.454Z,4.90
2019-05-30T13:34:04.948Z,5.67
2019-05-30T13:36:32.361Z,4.20
2019-05-30T13:39:01.064Z,4.43
2019-05-30T13:41:27.694Z,4.63
2019-05-30T13:43:55.364Z,3.10
2019-05-30T13:46:23.027Z,6.97
2019-05-30T13:48:51.644Z,4.63
2019-05-30T13:51:20.110Z,4.13
2019-05-30T13:53:47.871Z,5.17
2019-05-30T13:56:15.536Z,6.60
2019-05-30T13:58:43.095Z,4.90
2019-05-30T14:01:13.819Z,3.73
2019-05-30T14:03:38.932Z,5.37
2019-05-30T14:06:06.452Z,5.77
2019-05-30T14:08:41.586Z,5.53
2019-05-30T14:11:04.658Z,6.10
2019-05-30T14:13:32.789Z,6.07
2019-05-30T14:16:00.894Z,5.07
2019-05-30T14:18:27.889Z,5.80
2019-05-30T14:20:57.120Z,5.40
2019-05-30T14:23:25.721Z,6.43
2019-05-30T14:25:54.080Z,5.23
2019-05-30T14:28:21.563Z,7.50
2019-05-30T14:30:49.967Z,4.23
2019-05-30T14:33:17.489Z,6.20
2019-05-30T14:35:46.191Z,5.03
2019-05-30T14:38:15.186Z,4.67
2019-05-30T14:40:44.185Z,4.10
2019-05-30T14:43:13.621Z,5.13
2019-05-30T14:45:41.853Z,5.67
2019-05-30T14:48:10.530Z,4.20
2019-05-30T14:50:37.684Z,6.10
2019-05-30T14:53:05.205Z,7.33
2019-05-30T14:55:34.165Z,6.70
2019-05-30T14:58:01.754Z,4.33
2019-05-30T15:00:29.304Z,6.30
2019-05-30T15:02:56.916Z,5.27
2019-05-30T15:05:25.745Z,5.00
2019-05-30T15:07:53.324Z,4.30
2019-05-30T15:10:20.819Z,3.60
2019-05-30T15:12:49.279Z,4.07
2019-05-30T15:15:18.693Z,6.20
2019-05-30T15:17:44.404Z,4.67
2019-05-30T15:20:12.242Z,3.63
2019-05-30T15:22:39.393Z,3.70
2019-05-30T15:25:08.147Z,6.03
2019-05-30T15:27:35.786Z,5.83
2019-05-30T15:30:06.359Z,6.30
2019-05-30T15:32:33.708Z,5.10
2019-05-30T15:35:02.517Z,4.17
2019-05-30T15:37:30.181Z,5.63
2019-05-30T15:39:58.430Z,6.30
2019-05-30T15:42:26.806Z,3.00
2019-05-30T15:44:55.225Z,4.37
2019-05-30T15:47:23.486Z,4.17
2019-05-30T15:49:52.310Z,3.20
2019-05-30T15:52:19.006Z,3.90
2019-05-30T15:54:47.478Z,3.33
2019-05-30T15:57:15.684Z,3.73
2019-05-30T15:59:42.487Z,3.27
2019-05-30T16:02:10.081Z,3.27
2019-05-30T16:04:37.641Z,4.67
2019-05-30T16:07:05.223Z,7.63
2019-05-30T16:09:46.279Z,3.03
2019-05-30T16:12:01.883Z,3.90
2019-05-30T16:14:29.569Z,4.50
2019-05-30T16:16:58.436Z,6.70
2019-05-30T16:19:26.539Z,3.70
2019-05-30T16:21:53.464Z,6.37
2019-05-30T16:24:21.044Z,4.20
2019-05-30T16:26:48.542Z,5.57
2019-05-30T16:29:17.673Z,3.80
2019-05-30T16:31:45.172Z,3.43
2019-05-30T16:34:14.413Z,5.10
2019-05-30T16:36:44.211Z,5.83
2019-05-30T16:39:13.944Z,7.10
2019-05-30T16:41:42.861Z,4.50
2019-05-30T16:44:09.226Z,4.57
2019-05-30T16:46:37.849Z,5.03
2019-05-30T16:49:06.183Z,6.40
2019-05-30T16:51:34.674Z,4.30
2019-05-30T16:54:04.235Z,6.03
2019-05-30T16:56:31.948Z,5.37
2019-05-30T16:58:59.563Z,6.43
2019-05-30T17:01:27.868Z,7.07
2019-05-30T17:03:55.577Z,9.20
2019-05-30T17:06:24.213Z,8.70
2019-05-30T17:08:53.193Z,14.17
2019-05-30T17:11:21.644Z,6.57
2019-05-30T17:13:49.139Z,10.67
2019-05-30T17:16:17.867Z,15.90
2019-05-30T17:18:46.085Z,13.60
2019-05-30T17:21:14.337Z,11.90
2019-05-30T17:23:43.003Z,6.23
2019-05-30T17:26:11.966Z,7.07
2019-05-30T17:28:40.583Z,6.70
2019-05-30T17:31:09.322Z,6.37
2019-05-30T17:33:38.122Z,5.13
2019-05-30T17:36:05.621Z,6.00
2019-05-30T17:38:33.646Z,9.17
2019-05-30T17:41:03.586Z,4.20
2019-05-30T17:43:31.068Z,5.23
2019-05-30T17:46:00.143Z,6.03
2019-05-30T17:48:29.801Z,6.83
2019-05-30T17:50:56.546Z,9.17
2019-05-30T17:53:24.056Z,6.60
2019-05-30T17:55:51.543Z,4.07
2019-05-30T17:58:20.578Z,4.23
2019-05-30T18:00:48.522Z,6.93
2019-05-30T18:03:16.791Z,6.10
2019-05-30T18:05:45.062Z,8.07
2019-05-30T18:08:13.627Z,6.93
2019-05-30T18:10:52.995Z,7.33
2019-05-30T18:13:09.494Z,7.93
2019-05-30T18:15:37.760Z,5.07
2019-05-30T18:18:05.538Z,6.00
2019-05-30T18:20:47.743Z,4.13
2019-05-30T18:23:01.693Z,5.23
2019-05-30T18:25:31.730Z,5.93
2019-05-30T18:27:58.197Z,5.83
2019-05-30T18:30:29.886Z,7.23
2019-05-30T18:32:56.288Z,6.57
2019-05-30T18:35:24.195Z,6.57
2019-05-30T18:37:52.217Z,3.83
2019-05-30T18:40:24.745Z,5.93
2019-05-30T18:42:52.035Z,6.17
2019-05-30T18:45:19.694Z,6.87
2019-05-30T18:47:47.183Z,8.93
2019-05-30T18:50:15.436Z,5.43
2019-05-30T18:52:43.818Z,5.80
2019-05-30T18:55:12.510Z,3.83
2019-05-30T18:57:40.183Z,6.43
2019-05-30T19:00:08.010Z,5.37
2019-05-30T19:02:35.679Z,4.17
2019-05-30T19:05:06.573Z,4.20
2019-05-30T19:07:34.920Z,6.10
2019-05-30T19:10:03.107Z,5.90
2019-05-30T19:12:30.781Z,4.73
2019-05-30T19:14:58.285Z,4.57
2019-05-30T19:17:25.832Z,3.87
2019-05-30T19:19:54.611Z,4.83
2019-05-30T19:22:22.116Z,3.83
2019-05-30T19:24:51.024Z,6.53
2019-05-30T19:27:18.517Z,5.30
2019-05-30T19:29:47.216Z,2.83
2019-05-30T19:32:16.204Z,4.07
2019-05-30T19:34:43.690Z,8.17
2019-05-30T19:37:11.945Z,7.47
2019-05-30T19:39:39.418Z,6.03
2019-05-30T19:42:06.931Z,5.63
2019-05-30T19:44:39.295Z,3.27
2019-05-30T19:47:03.876Z,5.60
2019-05-30T19:49:32.466Z,5.27
2019-05-30T19:51:59.868Z,7.07
2019-05-30T19:54:28.823Z,4.03
2019-05-30T19:56:55.738Z,6.93
2019-05-30T19:59:23.319Z,5.43
2019-05-30T20:01:50.900Z,4.97
2019-05-30T20:04:19.270Z,4.50
2019-05-30T20:06:48.893Z,3.50
2019-05-30T20:09:17.276Z,4.83
2019-05-30T20:11:59.880Z,3.83
2019-05-30T20:14:14.114Z,5.40
2019-05-30T20:16:41.993Z,6.90
2019-05-30T20:19:09.150Z,5.13
2019-05-30T20:21:37.785Z,4.47
2019-05-30T20:24:05.350Z,4.70
2019-05-30T20:26:32.826Z,6.20
2019-05-30T20:29:01.735Z,5.30
2019-05-30T20:31:29.231Z,5.93
2019-05-30T20:33:57.591Z,5.17
2019-05-30T20:36:25.194Z,5.53
2019-05-30T20:38:53.551Z,6.57
2019-05-30T20:41:21.063Z,4.67
2019-05-30T20:43:48.533Z,5.67
2019-05-30T20:46:23.297Z,6.63
2019-05-30T20:48:45.142Z,5.20
2019-05-30T20:51:20.811Z,3.65
2019-05-30T20:53:41.237Z,6.47
2019-05-30T20:56:08.449Z,8.03
2019-05-30T20:58:35.936Z,8.90
2019-05-30T21:01:04.616Z,5.27
2019-05-30T21:03:33.298Z,7.07
2019-05-30T21:06:01.777Z,6.37
2019-05-30T21:08:29.272Z,7.17
2019-05-30T21:10:57.607Z,7.07
2019-05-30T21:13:25.182Z,7.50
2019-05-30T21:15:52.768Z,9.10
2019-05-30T21:18:21.039Z,5.60
2019-05-30T21:20:48.537Z,5.00
2019-05-30T21:23:16.176Z,5.20
2019-05-30T21:25:45.194Z,4.47
2019-05-30T21:28:12.884Z,8.57
2019-05-30T21:30:41.289Z,9.57
2019-05-30T21:33:08.259Z,4.47
2019-05-30T21:35:35.757Z,5.30
2019-05-30T21:38:04.620Z,8.30
2019-05-30T21:40:32.121Z,6.97
2019-05-30T21:43:06.382Z,5.27
2019-05-30T21:45:27.197Z,4.97
2019-05-30T21:47:54.878Z,5.37
2019-05-30T21:50:23.738Z,4.83
2019-05-30T21:52:52.091Z,5.63
2019-05-30T21:55:19.570Z,7.00
2019-05-30T21:57:48.038Z,7.23
2019-05-30T22:00:14.587Z,7.03
2019-05-30T22:02:42.300Z,8.00
2019-05-30T22:05:09.670Z,9.50
2019-05-30T22:07:37.736Z,9.30
2019-05-30T22:10:05.315Z,6.20
2019-05-30T22:12:33.898Z,8.70
2019-05-30T22:15:01.658Z,8.57
2019-05-30T22:17:29.234Z,13.27
2019-05-30T22:19:58.241Z,7.17
2019-05-30T22:22:25.896Z,10.10
2019-05-30T22:24:53.439Z,7.37
2019-05-30T22:27:21.145Z,7.00
2019-05-30T22:29:50.513Z,8.57
2019-05-30T22:32:17.806Z,8.07
2019-05-30T22:34:46.658Z,6.00
2019-05-30T22:37:13.769Z,6.37
2019-05-30T22:39:42.743Z,9.53
2019-05-30T22:42:10.101Z,8.60
2019-05-30T22:44:37.729Z,7.70
2019-05-30T22:47:06.282Z,9.57
2019-05-30T22:49:34.534Z,6.27
2019-05-30T22:52:02.057Z,5.50
2019-05-30T22:54:29.510Z,5.63
2019-05-30T22:56:57.020Z,10.63
2019-05-30T22:59:24.505Z,9.50
2019-05-30T23:01:53.666Z,8.27
2019-05-30T23:04:20.323Z,6.23
2019-05-30T23:06:48.265Z,6.93
2019-05-30T23:09:16.150Z,6.63
2019-05-30T23:11:43.667Z,8.77
2019-05-30T23:14:11.919Z,11.03
2019-05-30T23:16:39.401Z,6.90
2019-05-30T23:19:07.742Z,8.40
2019-05-30T23:21:35.268Z,9.47
2019-05-30T23:24:03.745Z,8.70
2019-05-30T23:26:31.299Z,7.53
2019-05-30T23:28:59.858Z,7.90
2019-05-30T23:31:27.522Z,7.13
2019-05-30T23:33:56.376Z,11.70
2019-05-30T23:36:23.475Z,10.90
2019-05-30T23:38:50.961Z,9.60
2019-05-30T23:41:19.250Z,7.82
2019-05-30T23:44:01.855Z,10.80
2019-05-30T23:46:15.368Z,11.80
2019-05-30T23:48:42.875Z,9.57
2019-05-30T23:51:10.391Z,12.80
2019-05-30T23:53:38.768Z,6.97
2019-05-30T23:56:06.543Z,11.90
2019-05-30T23:58:34.111Z,7.77
